createdAt,value
2018-02-06T00:00:39.181Z,79.49
2018-02-06T00:01:19.748Z,79.58
2018-02-06T00:02:00.319Z,78.92
2018-02-06T00:02:40.871Z,79.11
2018-02-06T00:03:21.400Z,79.02
2018-02-06T00:04:01.904Z,79.11
2018-02-06T00:04:42.427Z,79.21
2018-02-06T00:05:22.977Z,78.92
2018-02-06T00:06:03.515Z,79.02
2018-02-06T00:06:44.073Z,78.92
2018-02-06T00:07:24.605Z,79.02
2018-02-06T00:08:05.134Z,79.02
2018-02-06T00:08:45.684Z,79.39
2018-02-06T00:09:26.241Z,79.39
2018-02-06T00:10:06.824Z,78.73
2018-02-06T00:10:47.396Z,78.83
2018-02-06T00:11:27.952Z,78.83
2018-02-06T00:12:08.459Z,78.64
2018-02-06T00:12:48.937Z,79.39
2018-02-06T00:13:29.476Z,79.3
2018-02-06T00:14:09.965Z,78.83
2018-02-06T00:14:50.498Z,79.49
2018-02-06T00:15:31.033Z,79.11
2018-02-06T00:16:11.528Z,79.21
2018-02-06T00:16:52.080Z,79.11
2018-02-06T00:17:32.635Z,78.64
2018-02-06T00:18:13.260Z,78.83
2018-02-06T00:18:53.821Z,78.64
2018-02-06T00:19:34.369Z,78.54
2018-02-06T00:20:14.874Z,78.35
2018-02-06T00:20:55.412Z,78.73
2018-02-06T00:21:35.980Z,79.11
2018-02-06T00:22:16.499Z,79.39
2018-02-06T00:22:57.016Z,78.92
2018-02-06T00:23:37.554Z,79.11
2018-02-06T00:24:18.106Z,79.49
2018-02-06T00:24:58.656Z,79.49
2018-02-06T00:25:39.137Z,79.3
2018-02-06T00:26:19.700Z,79.21
2018-02-06T00:27:00.255Z,79.11
2018-02-06T00:27:40.824Z,79.02
2018-02-06T00:28:21.368Z,79.11
2018-02-06T00:29:01.889Z,78.73
2018-02-06T00:29:42.450Z,78.73
2018-02-06T00:30:22.924Z,79.58
2018-02-06T00:31:03.472Z,79.39
2018-02-06T00:31:44.044Z,79.39
2018-02-06T00:32:24.572Z,79.21
2018-02-06T00:33:05.093Z,79.11
2018-02-06T00:33:45.677Z,79.3
2018-02-06T00:34:26.197Z,79.87
2018-02-06T00:35:06.675Z,79.39
2018-02-06T00:35:47.240Z,79.68
2018-02-06T00:36:27.744Z,79.39
2018-02-06T00:37:08.285Z,79.58
2018-02-06T00:37:48.822Z,79.77
2018-02-06T00:38:29.368Z,79.58
2018-02-06T00:39:09.934Z,79.58
2018-02-06T00:39:50.483Z,79.87
2018-02-06T00:40:31.042Z,79.77
2018-02-06T00:41:11.570Z,79.49
2018-02-06T00:41:52.127Z,79.11
2018-02-06T00:42:32.624Z,79.21
2018-02-06T00:43:13.206Z,79.3
2018-02-06T00:43:53.753Z,79.02
2018-02-06T00:44:34.271Z,79.21
2018-02-06T00:45:14.782Z,79.77
2018-02-06T00:45:55.351Z,79.58
2018-02-06T00:46:35.915Z,79.87
2018-02-06T00:47:16.430Z,79.68
2018-02-06T00:47:56.921Z,79.96
2018-02-06T00:48:37.459Z,80.4
2018-02-06T00:49:17.996Z,79.74
2018-02-06T00:49:58.538Z,80.15
2018-02-06T00:50:39.077Z,80.63
2018-02-06T00:51:19.658Z,79.87
2018-02-06T00:52:00.198Z,80.58
2018-02-06T00:52:40.776Z,79.87
2018-02-06T00:53:21.289Z,80.53
2018-02-06T00:54:01.833Z,80.63
2018-02-06T00:54:42.351Z,80.06
2018-02-06T00:55:22.903Z,80.06
2018-02-06T00:56:03.443Z,79.58
2018-02-06T00:56:43.969Z,79.77
2018-02-06T00:57:24.552Z,79.39
2018-02-06T00:58:05.124Z,79.21
2018-02-06T00:58:45.612Z,79.39
2018-02-06T00:59:26.157Z,78.64
2018-02-06T01:00:06.687Z,78.45
2018-02-06T01:00:47.209Z,78.35
2018-02-06T01:01:27.769Z,78.83
2018-02-06T01:02:08.329Z,78.83
2018-02-06T01:02:48.824Z,78.64
2018-02-06T01:03:29.352Z,79.21
2018-02-06T01:04:09.887Z,79.68
2018-02-06T01:04:50.402Z,79.68
2018-02-06T01:05:30.969Z,79.68
2018-02-06T01:06:11.470Z,79.77
2018-02-06T01:06:52.011Z,79.68
2018-02-06T01:07:32.565Z,79.87
2018-02-06T01:08:13.064Z,79.77
2018-02-06T01:08:53.572Z,79.58
2018-02-06T01:09:34.129Z,79.68
2018-02-06T01:10:14.640Z,79.39
2018-02-06T01:10:55.168Z,79.68
2018-02-06T01:11:35.731Z,79.77
2018-02-06T01:12:16.267Z,79.77
2018-02-06T01:12:56.805Z,79.49
2018-02-06T01:13:37.351Z,79.87
2018-02-06T01:14:17.865Z,79.68
2018-02-06T01:14:58.415Z,79.49
2018-02-06T01:15:38.977Z,80.25
2018-02-06T01:16:19.510Z,79.58
2018-02-06T01:17:00.023Z,79.68
2018-02-06T01:17:40.574Z,79.49
2018-02-06T01:18:21.117Z,79.87
2018-02-06T01:19:03.414Z,79.58
2018-02-06T01:19:44.004Z,79.68
2018-02-06T01:20:24.533Z,79.58
2018-02-06T01:21:05.048Z,79.68
2018-02-06T01:21:45.561Z,79.49
2018-02-06T01:22:26.089Z,79.77
2018-02-06T01:23:06.626Z,79.55
2018-02-06T01:23:47.135Z,80.11
2018-02-06T01:24:27.748Z,80.06
2018-02-06T01:25:08.286Z,80.21
2018-02-06T01:25:48.833Z,80.82
2018-02-06T01:26:29.329Z,80.06
2018-02-06T01:27:09.874Z,79.96
2018-02-06T01:27:50.387Z,80.25
2018-02-06T01:28:30.955Z,79.96
2018-02-06T01:29:11.522Z,79.39
2018-02-06T01:29:52.049Z,79.55
2018-02-06T01:30:32.583Z,79.49
2018-02-06T01:31:13.212Z,80.25
2018-02-06T01:31:53.684Z,79.93
2018-02-06T01:32:34.220Z,80.11
2018-02-06T01:33:14.730Z,80.11
2018-02-06T01:33:55.280Z,80.68
2018-02-06T01:34:35.829Z,80.68
2018-02-06T01:35:16.421Z,80.3
2018-02-06T01:35:56.908Z,80.96
2018-02-06T01:36:37.444Z,80.3
2018-02-06T01:37:18.013Z,80.34
2018-02-06T01:37:58.531Z,80.49
2018-02-06T01:38:39.041Z,79.83
2018-02-06T01:39:19.598Z,80.4
2018-02-06T01:40:00.102Z,80.49
2018-02-06T01:40:40.627Z,80.49
2018-02-06T01:41:21.187Z,79.96
2018-02-06T01:42:01.756Z,79.96
2018-02-06T01:42:42.292Z,80.11
2018-02-06T01:43:22.766Z,79.83
2018-02-06T01:44:03.312Z,80.68
2018-02-06T01:44:43.877Z,80.49
2018-02-06T01:45:24.396Z,80.53
2018-02-06T01:46:04.924Z,80.91
2018-02-06T01:46:45.466Z,79.87
2018-02-06T01:47:25.961Z,80.06
2018-02-06T01:48:06.490Z,80.06
2018-02-06T01:48:47.079Z,80.34
2018-02-06T01:49:27.625Z,80.06
2018-02-06T01:50:08.108Z,79.77
2018-02-06T01:50:48.669Z,79.68
2018-02-06T01:51:29.228Z,79.39
2018-02-06T01:52:09.748Z,79.58
2018-02-06T01:52:50.250Z,79.58
2018-02-06T01:53:30.745Z,79.77
2018-02-06T01:54:11.287Z,80.25
2018-02-06T01:54:51.824Z,79.68
2018-02-06T01:55:32.344Z,79.77
2018-02-06T01:56:12.904Z,79.87
2018-02-06T01:56:53.418Z,80.25
2018-02-06T01:57:33.955Z,79.96
2018-02-06T01:58:14.487Z,79.87
2018-02-06T01:58:54.999Z,80.06
2018-02-06T01:59:35.537Z,80.91
2018-02-06T02:00:16.058Z,80.82
2018-02-06T02:00:56.573Z,80.53
2018-02-06T02:01:37.127Z,79.96
2018-02-06T02:02:17.725Z,79.87
2018-02-06T02:02:58.263Z,79.96
2018-02-06T02:03:38.773Z,79.96
2018-02-06T02:04:19.326Z,79.96
2018-02-06T02:04:59.860Z,79.49
2018-02-06T02:05:40.418Z,79.77
2018-02-06T02:06:20.934Z,79.68
2018-02-06T02:07:01.468Z,79.68
2018-02-06T02:07:41.983Z,79.77
2018-02-06T02:08:22.551Z,80.06
2018-02-06T02:09:03.184Z,79.87
2018-02-06T02:09:43.652Z,80.06
2018-02-06T02:10:24.196Z,79.96
2018-02-06T02:11:04.747Z,79.77
2018-02-06T02:11:45.320Z,80.34
2018-02-06T02:12:25.826Z,80.06
2018-02-06T02:13:06.328Z,80.63
2018-02-06T02:13:46.893Z,80.63
2018-02-06T02:14:27.460Z,80.82
2018-02-06T02:15:07.998Z,80.82
2018-02-06T02:15:48.536Z,79.87
2018-02-06T02:16:29.051Z,79.77
2018-02-06T02:17:09.601Z,79.96
2018-02-06T02:17:50.182Z,79.58
2018-02-06T02:18:30.707Z,79.87
2018-02-06T02:19:11.236Z,79.68
2018-02-06T02:19:51.762Z,80.25
2018-02-06T02:20:32.376Z,79.68
2018-02-06T02:21:12.896Z,80.72
2018-02-06T02:21:53.426Z,80.63
2018-02-06T02:22:33.971Z,80.15
2018-02-06T02:23:14.543Z,80.06
2018-02-06T02:23:55.101Z,79.87
2018-02-06T02:24:35.653Z,80.11
2018-02-06T02:25:16.192Z,80.72
2018-02-06T02:25:56.748Z,80.53
2018-02-06T02:26:37.254Z,79.87
2018-02-06T02:27:17.774Z,80.25
2018-02-06T02:27:58.357Z,80.15
2018-02-06T02:28:38.892Z,80.15
2018-02-06T02:29:19.453Z,79.87
2018-02-06T02:29:59.976Z,80.53
2018-02-06T02:30:42.330Z,80.72
2018-02-06T02:31:22.948Z,80.44
2018-02-06T02:32:03.429Z,80.63
2018-02-06T02:32:43.983Z,80.72
2018-02-06T02:33:24.560Z,80.63
2018-02-06T02:34:05.084Z,80.53
2018-02-06T02:34:45.599Z,80.53
2018-02-06T02:35:26.173Z,80.63
2018-02-06T02:36:06.722Z,80.58
2018-02-06T02:36:47.344Z,80.49
2018-02-06T02:37:27.817Z,80.72
2018-02-06T02:38:08.303Z,80.44
2018-02-06T02:38:48.841Z,80.58
2018-02-06T02:39:29.375Z,80.77
2018-02-06T02:40:09.942Z,80.96
2018-02-06T02:40:50.450Z,80.87
2018-02-06T02:41:30.953Z,80.77
2018-02-06T04:38:47.385Z,80.53
2018-02-06T04:39:27.899Z,80.82
2018-02-06T04:40:08.433Z,80.82
2018-02-06T04:40:48.963Z,81.1
2018-02-06T04:41:29.478Z,80.72
2018-02-06T04:42:10.110Z,81.1
2018-02-06T04:42:50.699Z,80.82
2018-02-06T04:43:31.131Z,80.82
2018-02-06T04:44:11.670Z,80.91
2018-02-06T04:44:52.200Z,80.72
2018-02-06T04:45:32.730Z,80.44
2018-02-06T04:46:13.286Z,80.72
2018-02-06T04:46:53.796Z,80.06
2018-02-06T04:47:34.364Z,79.87
2018-02-06T04:48:14.890Z,79.58
2018-02-06T04:48:55.443Z,79.77
2018-02-06T04:49:35.988Z,79.68
2018-02-06T04:50:16.499Z,79.68
2018-02-06T04:50:57.058Z,79.77
2018-02-06T04:51:37.559Z,79.49
2018-02-06T04:52:18.137Z,79.96
2018-02-06T04:52:58.642Z,79.87
2018-02-06T04:53:39.221Z,79.96
2018-02-06T04:54:19.725Z,80.53
2018-02-06T04:55:00.285Z,80.44
2018-02-06T04:55:40.837Z,80.49
2018-02-06T04:56:21.345Z,80.49
2018-02-06T04:57:02.672Z,80.87
2018-02-06T04:57:43.221Z,81.44
2018-02-06T04:58:23.713Z,81.63
2018-02-06T04:59:04.254Z,81.15
2018-02-06T04:59:44.795Z,81.06
2018-02-06T05:00:25.319Z,81.44
2018-02-06T05:01:05.874Z,80.77
2018-02-06T05:01:46.426Z,81.06
2018-02-06T05:02:26.935Z,81.15
2018-02-06T05:03:07.481Z,80.96
2018-02-06T05:03:48.032Z,81.2
2018-02-06T05:04:28.607Z,81.38
2018-02-06T05:05:09.070Z,80.82
2018-02-06T05:05:49.614Z,80.72
2018-02-06T05:06:30.184Z,80.91
2018-02-06T05:07:10.696Z,80.34
2018-02-06T05:07:51.221Z,80.53
2018-02-06T05:08:31.725Z,80.72
2018-02-06T05:09:12.268Z,79.87
2018-02-06T05:09:52.760Z,79.87
2018-02-06T05:10:33.257Z,79.68
2018-02-06T05:11:13.778Z,79.87
2018-02-06T05:11:54.330Z,79.96
2018-02-06T05:12:35.770Z,79.87
2018-02-06T05:13:15.421Z,80.34
2018-02-06T05:13:55.926Z,80.34
2018-02-06T05:14:36.490Z,80.25
2018-02-06T05:15:16.996Z,80.53
2018-02-06T05:15:57.515Z,80.53
2018-02-06T05:16:38.046Z,80.53
2018-02-06T05:17:18.537Z,80.72
2018-02-06T05:17:59.109Z,80.53
2018-02-06T05:18:39.618Z,80.72
2018-02-06T05:19:20.116Z,80.63
2018-02-06T05:20:00.659Z,80.82
2018-02-06T05:20:41.199Z,80.91
2018-02-06T05:21:21.725Z,80.82
2018-02-06T05:22:02.270Z,81.1
2018-02-06T05:22:42.789Z,81.01
2018-02-06T05:23:23.332Z,80.72
2018-02-06T05:24:03.973Z,80.82
2018-02-06T05:24:44.515Z,80.82
2018-02-06T05:25:25.043Z,80.82
2018-02-06T05:26:05.603Z,80.63
2018-02-06T05:26:46.170Z,81.1
2018-02-06T05:27:26.758Z,80.34
2018-02-06T05:28:07.254Z,80.63
2018-02-06T05:28:47.787Z,80.82
2018-02-06T05:29:28.306Z,81.15
2018-02-06T05:30:08.826Z,81.1
2018-02-06T05:30:49.323Z,81.15
2018-02-06T05:31:29.855Z,81.15
2018-02-06T05:32:10.359Z,81.25
2018-02-06T05:32:50.916Z,81.53
2018-02-06T05:33:31.477Z,81.44
2018-02-06T05:34:12.055Z,81.53
2018-02-06T05:34:52.539Z,81.82
2018-02-06T05:35:33.100Z,81.44
2018-02-06T05:36:13.603Z,81.53
2018-02-06T05:36:54.177Z,81.53
2018-02-06T05:37:34.713Z,81.53
2018-02-06T05:38:15.220Z,81.63
2018-02-06T05:38:55.746Z,81.53
2018-02-06T05:39:36.360Z,81.2
2018-02-06T05:40:16.840Z,81.38
2018-02-06T05:40:57.423Z,81.38
2018-02-06T05:41:37.917Z,81.67
2018-02-06T05:42:18.464Z,81.53
2018-02-06T05:42:59.005Z,81.06
2018-02-06T05:43:39.553Z,81.06
2018-02-06T05:44:20.115Z,81.82
2018-02-06T05:45:00.630Z,81.34
2018-02-06T05:45:41.205Z,82.2
2018-02-06T05:46:21.706Z,81.15
2018-02-06T05:47:02.287Z,81.53
2018-02-06T05:47:42.978Z,81.38
2018-02-06T05:48:23.513Z,81.48
2018-02-06T05:49:04.040Z,81.01
2018-02-06T05:49:44.558Z,80.91
2018-02-06T05:50:25.087Z,81.57
2018-02-06T05:51:05.593Z,81.57
2018-02-06T05:51:46.138Z,81.38
2018-02-06T05:52:26.686Z,81.29
2018-02-06T05:53:07.199Z,81.38
2018-02-06T05:53:47.744Z,81.1
2018-02-06T05:54:28.278Z,80.82
2018-02-06T05:55:08.815Z,81.1
2018-02-06T05:55:49.354Z,81.57
2018-02-06T05:56:29.884Z,81.67
2018-02-06T05:57:10.410Z,81.48
2018-02-06T05:57:50.984Z,81.38
2018-02-06T05:58:31.476Z,80.91
2018-02-06T05:59:12.052Z,81.38
2018-02-06T05:59:52.537Z,80.82
2018-02-06T06:00:33.109Z,80.72
2018-02-06T06:01:13.687Z,81.01
2018-02-06T06:01:54.267Z,80.91
2018-02-06T06:02:34.828Z,81.48
2018-02-06T06:03:15.334Z,81.57
2018-02-06T06:03:55.918Z,81.48
2018-02-06T06:04:36.454Z,81.38
2018-02-06T06:05:17.023Z,81.25
2018-02-06T06:05:57.599Z,81.63
2018-02-06T06:06:38.220Z,81.92
2018-02-06T06:07:18.765Z,81.72
2018-02-06T06:07:59.602Z,81.76
2018-02-06T06:08:39.875Z,81.2
2018-02-06T06:09:20.456Z,81.1
2018-02-06T06:10:00.970Z,81.48
2018-02-06T06:10:41.511Z,81.38
2018-02-06T06:11:22.030Z,80.91
2018-02-06T06:12:02.605Z,81.01
2018-02-06T06:12:43.127Z,80.72
2018-02-06T06:13:23.690Z,81.01
2018-02-06T06:14:04.334Z,80.82
2018-02-06T06:14:44.945Z,81.01
2018-02-06T06:15:25.544Z,81.01
2018-02-06T06:16:06.154Z,80.91
2018-02-06T06:16:46.688Z,81.57
2018-02-06T06:17:27.222Z,81.29
2018-02-06T06:18:07.870Z,81.48
2018-02-06T06:18:48.398Z,81.2
2018-02-06T06:19:28.964Z,81.29
2018-02-06T06:20:09.541Z,81.38
2018-02-06T06:20:50.095Z,81.01
2018-02-06T06:21:30.672Z,80.82
2018-02-06T06:22:11.270Z,80.82
2018-02-06T06:22:51.844Z,81.1
2018-02-06T06:23:32.432Z,81.2
2018-02-06T06:24:13.013Z,81.29
2018-02-06T06:24:53.562Z,81.29
2018-02-06T06:25:34.273Z,81.76
2018-02-06T06:26:21.861Z,81.67
2018-02-06T06:27:02.409Z,82.24
2018-02-06T06:27:42.928Z,81.95
2018-02-06T06:28:23.462Z,81.57
2018-02-06T06:29:04.057Z,82.33
2018-02-06T06:29:44.534Z,82.52
2018-02-06T06:30:25.202Z,82.14
2018-02-06T06:31:05.842Z,82.43
2018-02-06T06:31:46.459Z,81.95
2018-02-06T06:32:26.996Z,81.57
2018-02-06T06:33:08.156Z,81.86
2018-02-06T06:33:48.665Z,81.95
2018-02-06T06:34:29.237Z,82.52
2018-02-06T06:35:09.803Z,83.56
2018-02-06T06:35:50.465Z,83.85
2018-02-06T06:36:31.076Z,82.71
2018-02-06T06:37:11.614Z,82.33
2018-02-06T06:37:52.201Z,82.9
2018-02-06T06:38:32.714Z,82.71
2018-02-06T06:39:13.222Z,83.37
2018-02-06T06:39:53.760Z,83.37
2018-02-06T06:40:34.271Z,82.9
2018-02-06T06:41:14.874Z,83.47
2018-02-06T06:41:55.438Z,82.52
2018-02-06T06:42:35.990Z,82.43
2018-02-06T06:43:16.556Z,81.67
2018-02-06T06:43:57.054Z,81.57
2018-02-06T06:44:37.673Z,82.81
2018-02-06T06:45:18.193Z,83.47
2018-02-06T06:45:58.728Z,82.81
2018-02-06T06:46:39.254Z,83.18
2018-02-06T06:47:19.808Z,83
2018-02-06T06:48:00.402Z,83.32
2018-02-06T06:48:41.054Z,83.13
2018-02-06T06:49:21.616Z,83.42
2018-02-06T06:50:02.128Z,83.28
2018-02-06T06:50:42.679Z,82.75
2018-02-06T06:51:23.209Z,82.94
2018-02-06T06:52:04.501Z,82.09
2018-02-06T06:52:44.997Z,81.43
2018-02-06T06:53:25.522Z,81.52
2018-02-06T06:54:06.099Z,82.47
2018-02-06T06:54:46.625Z,82.47
2018-02-06T06:55:27.176Z,81.14
2018-02-06T06:56:07.751Z,80.91
2018-02-06T06:56:48.269Z,82.47
2018-02-06T06:57:28.979Z,83.42
2018-02-06T06:58:09.475Z,83.51
2018-02-06T06:58:49.990Z,82.81
2018-02-06T06:59:30.608Z,82.24
2018-02-06T07:00:11.212Z,82.47
2018-02-06T07:00:51.668Z,82.94
2018-02-06T07:01:32.204Z,82.75
2018-02-06T07:02:12.756Z,81.71
2018-02-06T07:02:53.292Z,81.48
2018-02-06T07:03:33.836Z,81.57
2018-02-06T07:04:14.368Z,80.91
2018-02-06T07:04:54.919Z,80.91
2018-02-06T07:05:35.430Z,81.71
2018-02-06T07:06:15.997Z,81.43
2018-02-06T07:06:56.539Z,82.09
2018-02-06T07:07:37.065Z,82.28
2018-02-06T07:08:17.591Z,82.66
2018-02-06T07:08:58.062Z,83.32
2018-02-06T07:09:38.584Z,83.13
2018-02-06T07:10:19.219Z,81.52
2018-02-06T07:10:59.724Z,80.86
2018-02-06T07:11:40.297Z,80.86
2018-02-06T07:12:20.812Z,80.76
2018-02-06T07:13:01.374Z,80.76
2018-02-06T07:13:41.938Z,80.57
2018-02-06T07:14:22.428Z,82.28
2018-02-06T07:15:03.015Z,82.75
2018-02-06T07:15:43.560Z,82.28
2018-02-06T07:16:24.095Z,81.14
2018-02-06T07:17:04.627Z,80.67
2018-02-06T07:17:45.173Z,84.27
2018-02-06T07:18:25.752Z,86.35
2018-02-06T07:19:06.289Z,84.55
2018-02-06T07:19:46.833Z,84.55
2018-02-06T07:20:27.424Z,99.99
2018-02-06T07:21:07.934Z,99.99
2018-02-06T07:21:48.435Z,99.99
2018-02-06T07:22:28.986Z,99.99
2018-02-06T07:23:09.512Z,99.99
2018-02-06T07:23:50.024Z,99.99
2018-02-06T07:24:30.583Z,99.99
2018-02-06T07:25:11.213Z,99.99
2018-02-06T07:25:51.679Z,99.99
2018-02-06T07:26:32.274Z,99.99
2018-02-06T07:27:12.797Z,99.99
2018-02-06T07:27:53.318Z,99.99
2018-02-06T07:28:33.897Z,99.99
2018-02-06T07:29:14.455Z,99.99
2018-02-06T07:29:54.937Z,99.99
2018-02-06T07:30:35.572Z,98.3
2018-02-06T07:31:16.148Z,97.92
2018-02-06T07:31:56.664Z,97.26
2018-02-06T07:32:37.232Z,99.99
2018-02-06T07:33:17.805Z,98.58
2018-02-06T07:33:58.354Z,99.99
2018-02-06T07:34:38.858Z,99.99
2018-02-06T07:35:19.367Z,99.99
2018-02-06T07:35:59.941Z,99.99
2018-02-06T07:36:40.457Z,99.99
2018-02-06T07:37:21.020Z,99.99
2018-02-06T07:38:01.579Z,99.99
2018-02-06T07:38:42.123Z,99.99
2018-02-06T07:39:22.725Z,99.99
2018-02-06T07:40:03.398Z,99.99
2018-02-06T07:40:43.871Z,99.99
2018-02-06T07:41:24.384Z,99.99
2018-02-06T07:42:04.950Z,99.99
2018-02-06T07:42:45.464Z,98.25
2018-02-06T07:43:26.167Z,96.08
2018-02-06T07:44:06.735Z,95.03
2018-02-06T07:44:47.309Z,92.18
2018-02-06T07:45:27.873Z,91.52
2018-02-06T07:46:08.450Z,91.61
2018-02-06T07:46:48.941Z,89.25
2018-02-06T07:47:29.455Z,88.68
2018-02-06T07:48:10.060Z,88.77
2018-02-06T07:48:50.572Z,87.45
2018-02-06T07:49:31.058Z,86.49
2018-02-06T07:50:11.590Z,85.45
2018-02-06T07:50:52.174Z,85.93
2018-02-06T07:51:32.771Z,88.77
2018-02-06T07:52:13.261Z,89.06
2018-02-06T07:52:53.808Z,87.25
2018-02-06T07:53:34.332Z,86.68
2018-02-06T07:54:14.843Z,87.63
2018-02-06T07:54:55.404Z,87.73
2018-02-06T07:55:35.980Z,84.94
2018-02-06T07:56:16.512Z,84.5
2018-02-06T07:56:57.033Z,83.89
2018-02-06T07:57:37.635Z,82.7
2018-02-06T07:58:18.119Z,83.17
2018-02-06T07:58:58.664Z,86.02
2018-02-06T07:59:39.190Z,99.99
2018-02-06T08:00:19.740Z,99.99
2018-02-06T08:01:00.381Z,99.99
2018-02-06T08:01:40.913Z,99.99
2018-02-06T08:02:21.478Z,99.99
2018-02-06T08:03:01.989Z,99.99
2018-02-06T08:03:42.545Z,99.99
2018-02-06T08:04:23.082Z,99.99
2018-02-06T08:05:03.746Z,99.99
2018-02-06T08:05:44.273Z,99.99
2018-02-06T08:06:24.821Z,99.99
2018-02-06T08:07:05.286Z,99.99
2018-02-06T08:07:45.891Z,99.87
2018-02-06T08:08:26.451Z,95.41
2018-02-06T08:09:06.954Z,92.09
2018-02-06T08:09:47.541Z,90.38
2018-02-06T08:10:28.087Z,87.54
2018-02-06T08:11:08.591Z,88.87
2018-02-06T08:11:49.159Z,95.74
2018-02-06T08:12:29.692Z,99.99
2018-02-06T08:13:10.275Z,99.99
2018-02-06T08:13:50.820Z,99.99
2018-02-06T08:14:31.357Z,99.99
2018-02-06T08:15:11.909Z,99.99
2018-02-06T08:15:52.438Z,99.99
2018-02-06T08:16:33.112Z,99.99
2018-02-06T08:17:13.702Z,99.99
2018-02-06T08:17:54.174Z,99.99
2018-02-06T08:18:34.818Z,99.99
2018-02-06T08:19:15.401Z,99.99
2018-02-06T08:19:55.913Z,99.99
2018-02-06T08:20:36.414Z,99.99
2018-02-06T08:21:16.978Z,97.64
2018-02-06T08:21:57.499Z,96.03
2018-02-06T08:22:38.018Z,93.37
2018-02-06T08:23:18.597Z,89.86
2018-02-06T08:23:59.124Z,88.53
2018-02-06T08:24:39.692Z,89.29
2018-02-06T08:25:20.227Z,88.15
2018-02-06T08:26:00.895Z,89.67
2018-02-06T08:26:41.362Z,99.99
2018-02-06T08:27:21.936Z,99.99
2018-02-06T08:28:02.468Z,99.99
2018-02-06T08:28:42.984Z,99.99
2018-02-06T08:29:23.546Z,99.99
2018-02-06T08:30:04.100Z,99.99
2018-02-06T08:30:44.632Z,99.99
2018-02-06T08:31:25.277Z,96.78
2018-02-06T08:32:05.797Z,93.37
2018-02-06T08:32:46.327Z,91.75
2018-02-06T08:33:26.908Z,90.52
2018-02-06T08:34:07.439Z,90.05
2018-02-06T08:34:48.017Z,89.48
2018-02-06T08:35:28.615Z,90.81
2018-02-06T08:36:09.115Z,90.33
2018-02-06T08:36:49.689Z,91.47
2018-02-06T08:37:30.262Z,91.47
2018-02-06T08:38:10.767Z,90.05
2018-02-06T08:38:51.275Z,86.82
2018-02-06T08:39:31.831Z,85.02
2018-02-06T08:40:12.330Z,86.07
2018-02-06T08:40:52.842Z,85.4
2018-02-06T08:41:33.425Z,88.72
2018-02-06T08:42:13.928Z,97.41
2018-02-06T08:42:54.440Z,99.99
2018-02-06T08:43:35.003Z,99.99
2018-02-06T08:44:15.640Z,99.99
2018-02-06T08:44:56.195Z,99.99
2018-02-06T08:45:36.742Z,99.99
2018-02-06T08:46:17.274Z,99.99
2018-02-06T08:46:57.759Z,99.99
2018-02-06T08:47:38.290Z,99.99
2018-02-06T08:48:18.824Z,99.99
2018-02-06T08:48:59.323Z,99.99
2018-02-06T08:49:39.906Z,98.4
2018-02-06T08:50:20.473Z,96.17
2018-02-06T08:51:01.015Z,93.7
2018-02-06T08:51:41.579Z,90.95
2018-02-06T08:52:24.246Z,87.53
2018-02-06T08:53:05.854Z,84.36
2018-02-06T08:53:47.029Z,86.63
2018-02-06T08:54:27.646Z,88.86
2018-02-06T08:55:08.206Z,87.58
2018-02-06T08:55:48.783Z,99.99
2018-02-06T08:56:29.322Z,99.99
2018-02-06T08:57:09.858Z,99.99
2018-02-06T08:57:50.351Z,99.99
2018-02-06T08:58:30.869Z,99.99
2018-02-06T08:59:11.539Z,99.99
2018-02-06T08:59:52.035Z,99.99
2018-02-06T09:00:32.620Z,99.99
2018-02-06T09:01:13.175Z,99.99
2018-02-06T09:01:53.702Z,99.99
2018-02-06T09:02:34.268Z,99.99
2018-02-06T09:03:14.775Z,99.49
2018-02-06T09:03:55.391Z,99.21
2018-02-06T09:04:35.875Z,96.64
2018-02-06T09:05:16.428Z,93.04
2018-02-06T09:05:56.969Z,90.57
2018-02-06T09:06:37.505Z,86.39
2018-02-06T09:07:17.984Z,86.3
2018-02-06T09:07:58.534Z,83.83
2018-02-06T09:08:39.056Z,82.31
2018-02-06T09:09:19.609Z,81.23
2018-02-06T09:10:00.097Z,99.99
2018-02-06T09:10:40.689Z,99.99
2018-02-06T09:11:21.230Z,99.99
2018-02-06T09:12:01.808Z,99.99
2018-02-06T09:12:42.444Z,99.99
2018-02-06T09:13:22.914Z,99.99
2018-02-06T09:14:03.480Z,99.99
2018-02-06T09:14:44.055Z,99.99
2018-02-06T09:15:24.554Z,98.26
2018-02-06T09:16:05.134Z,94.65
2018-02-06T09:16:45.641Z,93.51
2018-02-06T09:17:26.199Z,91.8
2018-02-06T09:18:06.743Z,89.43
2018-02-06T09:18:47.316Z,87.53
2018-02-06T09:19:27.824Z,85.72
2018-02-06T09:20:08.357Z,84.49
2018-02-06T09:20:48.851Z,85.25
2018-02-06T09:21:29.425Z,85.72
2018-02-06T09:22:09.988Z,83.16
2018-02-06T09:22:50.450Z,80.88
2018-02-06T09:23:30.972Z,80.51
2018-02-06T09:24:11.502Z,80.13
2018-02-06T09:24:52.097Z,80.88
2018-02-06T09:25:32.680Z,80.98
2018-02-06T09:26:13.324Z,81.65
2018-02-06T09:26:53.821Z,82.16
2018-02-06T09:27:34.326Z,82.26
2018-02-06T09:28:14.867Z,81.3
2018-02-06T09:28:55.365Z,79.69
2018-02-06T09:29:35.928Z,81.4
2018-02-06T09:30:16.446Z,85.49
2018-02-06T09:30:56.955Z,99.99
2018-02-06T09:31:37.609Z,99.99
2018-02-06T09:32:18.108Z,99.99
2018-02-06T09:32:58.671Z,93.37
2018-02-06T09:33:39.196Z,87.19
2018-02-06T09:34:19.709Z,80.69
2018-02-06T09:35:00.234Z,81.36
2018-02-06T09:35:40.781Z,81.21
2018-02-06T09:36:21.318Z,80.93
2018-02-06T09:37:01.845Z,80.83
2018-02-06T09:37:42.365Z,80.35
2018-02-06T09:38:22.883Z,79.69
2018-02-06T09:39:03.480Z,77.03
2018-02-06T09:39:44.026Z,75.79
2018-02-06T09:40:24.538Z,75.79
2018-02-06T09:41:05.053Z,75.79
2018-02-06T09:41:45.616Z,75.79
2018-02-06T09:42:26.130Z,74.94
2018-02-06T09:43:06.810Z,75.79
2018-02-06T09:43:47.389Z,75.32
2018-02-06T09:44:27.981Z,76.27
2018-02-06T09:45:08.532Z,77.51
2018-02-06T09:45:49.131Z,78.27
2018-02-06T09:46:29.702Z,78.83
2018-02-06T09:47:10.235Z,77.51
2018-02-06T09:47:50.817Z,75.79
2018-02-06T09:48:31.342Z,76.08
2018-02-06T09:49:11.895Z,79.69
2018-02-06T09:49:52.486Z,79.5
2018-02-06T09:50:33.018Z,78.74
2018-02-06T09:51:13.490Z,77.51
2018-02-06T09:51:54.082Z,79.22
2018-02-06T09:52:34.544Z,81.12
2018-02-06T09:53:15.157Z,82.45
2018-02-06T09:53:55.682Z,87.95
2018-02-06T09:54:36.193Z,99.99
2018-02-06T09:55:16.704Z,99.99
2018-02-06T09:55:57.289Z,99.99
2018-02-06T09:56:37.814Z,99.99
2018-02-06T09:57:18.394Z,99.99
2018-02-06T09:57:58.941Z,99.99
2018-02-06T09:58:39.520Z,99.99
2018-02-06T09:59:20.007Z,99.99
2018-02-06T10:00:00.564Z,99.99
2018-02-06T10:00:41.103Z,94.51
2018-02-06T10:01:21.706Z,89.57
2018-02-06T10:02:02.174Z,87.38
2018-02-06T10:02:42.740Z,86.05
2018-02-06T10:03:23.273Z,84.53
2018-02-06T10:04:03.785Z,81.87
2018-02-06T10:04:44.380Z,79.31
2018-02-06T10:05:24.999Z,77.6
2018-02-06T10:06:05.528Z,76.84
2018-02-06T10:06:46.064Z,77.03
2018-02-06T10:07:26.606Z,76.18
2018-02-06T10:08:07.159Z,81.21
2018-02-06T10:08:47.793Z,80.83
2018-02-06T10:09:28.588Z,85.49
2018-02-06T10:10:09.060Z,99.99
2018-02-06T10:10:49.690Z,94.23
2018-02-06T10:11:30.267Z,87.76
2018-02-06T10:12:10.794Z,99.02
2018-02-06T10:12:51.363Z,88.62
2018-02-06T10:13:31.878Z,84.34
2018-02-06T10:14:12.384Z,82.45
2018-02-06T10:14:52.913Z,80.35
2018-02-06T10:15:33.496Z,81.02
2018-02-06T10:16:13.981Z,80.74
2018-02-06T10:16:54.891Z,81.3
2018-02-06T10:17:35.409Z,80.35
2018-02-06T10:18:15.939Z,79.69
2018-02-06T10:18:56.502Z,77.7
2018-02-06T10:19:37.068Z,76.08
2018-02-06T10:20:17.621Z,75.13
2018-02-06T10:20:58.161Z,74.37
2018-02-06T10:21:38.677Z,75.09
2018-02-06T10:22:19.197Z,75.42
2018-02-06T10:22:59.756Z,74.81
2018-02-06T10:23:40.342Z,74.24
2018-02-06T10:24:20.874Z,73.48
2018-02-06T10:25:01.485Z,74.81
2018-02-06T10:25:42.117Z,76.71
2018-02-06T10:26:22.621Z,79.41
2018-02-06T10:27:03.176Z,79.5
2018-02-06T10:27:43.730Z,78.45
2018-02-06T10:28:24.276Z,76.71
2018-02-06T10:29:04.819Z,77.22
2018-02-06T10:29:45.465Z,84.63
2018-02-06T10:30:25.988Z,99.99
2018-02-06T10:31:06.557Z,96.98
2018-02-06T10:31:47.250Z,99.99
2018-02-06T10:32:27.785Z,99.99
2018-02-06T10:33:08.315Z,99.99
2018-02-06T10:33:48.865Z,99.99
2018-02-06T10:34:29.485Z,99.99
2018-02-06T10:35:10.017Z,93.75
2018-02-06T10:35:50.563Z,85.86
2018-02-06T10:36:31.065Z,81.65
2018-02-06T10:37:11.678Z,80.16
2018-02-06T10:37:52.228Z,78.61
2018-02-06T10:38:32.818Z,77.37
2018-02-06T10:39:13.427Z,78.51
2018-02-06T10:39:53.954Z,78.89
2018-02-06T10:40:34.461Z,79.74